createdAt,value
2022-10-08T00:09:11.020Z,1.52
2022-10-08T05:41:07.235Z,2.90
2022-10-08T06:03:24.261Z,6.30
2022-10-08T06:06:26.908Z,6.50
2022-10-08T06:09:28.681Z,6.45
2022-10-08T06:12:30.296Z,7.40
2022-10-08T06:15:31.894Z,6.13
2022-10-08T06:18:38.807Z,6.32
2022-10-08T06:21:40.526Z,6.45
2022-10-08T06:24:42.127Z,6.47
2022-10-08T06:27:43.705Z,7.00
2022-10-08T06:30:45.286Z,6.35
2022-10-08T06:33:47.084Z,5.88
2022-10-08T06:36:48.679Z,5.80
2022-10-08T06:39:50.315Z,6.03
2022-10-08T06:42:53.051Z,5.63
2022-10-08T06:45:56.514Z,6.22
2022-10-08T06:49:00.366Z,6.82
2022-10-08T06:52:02.037Z,6.78
2022-10-08T06:55:03.915Z,6.65
2022-10-08T06:58:06.243Z,6.88
2022-10-08T07:01:13.634Z,7.35
2022-10-08T07:04:15.275Z,7.22
2022-10-08T07:07:17.050Z,7.80
2022-10-08T07:10:18.758Z,7.55
2022-10-08T07:13:20.993Z,6.90
2022-10-08T07:16:24.461Z,6.60
2022-10-08T07:19:26.587Z,6.75
2022-10-08T07:22:28.342Z,6.30
2022-10-08T07:25:30.094Z,5.70
2022-10-08T07:28:35.047Z,5.97
2022-10-08T07:31:37.555Z,5.43
2022-10-08T07:34:39.209Z,5.88
2022-10-08T07:37:43.840Z,5.30
2022-10-08T07:40:46.983Z,5.22
2022-10-08T07:43:53.177Z,5.47
2022-10-08T07:46:54.909Z,5.53
2022-10-08T07:49:56.470Z,4.55
2022-10-08T07:52:58.067Z,4.95
2022-10-08T07:55:59.652Z,4.75
2022-10-08T07:59:02.675Z,4.45
2022-10-08T08:02:04.398Z,4.18
2022-10-08T08:05:06.521Z,4.63
2022-10-08T08:08:08.091Z,4.40
2022-10-08T08:11:12.393Z,4.40
2022-10-08T08:14:14.223Z,4.65
2022-10-08T08:17:15.840Z,4.10
2022-10-08T08:20:17.427Z,4.10
2022-10-08T08:23:19.038Z,3.63
2022-10-08T08:26:23.307Z,4.10
2022-10-08T08:29:24.877Z,4.07
2022-10-08T08:32:28.642Z,3.67
2022-10-08T08:35:30.381Z,3.95
2022-10-08T08:38:35.648Z,3.90
2022-10-08T08:41:52.685Z,3.72
2022-10-08T08:45:00.373Z,3.70
2022-10-08T08:48:12.860Z,3.45
2022-10-08T08:51:16.179Z,3.60
2022-10-08T08:54:17.894Z,3.90
2022-10-08T08:57:38.623Z,3.50
2022-10-08T09:00:44.953Z,3.65
2022-10-08T09:03:50.844Z,3.70
2022-10-08T09:06:53.700Z,3.20
2022-10-08T09:09:58.845Z,3.35
2022-10-08T09:13:02.310Z,2.88
2022-10-08T09:16:04.035Z,2.88
2022-10-08T09:19:05.647Z,2.90
2022-10-08T09:22:24.377Z,2.70
2022-10-08T09:25:32.822Z,2.80
2022-10-08T09:28:41.711Z,2.85
2022-10-08T09:31:48.000Z,2.85
2022-10-08T09:34:49.679Z,2.53
2022-10-08T10:00:28.758Z,2.40
2022-10-08T10:03:31.726Z,2.20
2022-10-08T10:06:40.348Z,2.20
2022-10-08T10:09:46.853Z,2.85
2022-10-08T10:12:54.469Z,2.50
2022-10-08T10:16:04.986Z,2.30
2022-10-08T10:19:14.405Z,2.40
2022-10-08T10:22:23.942Z,2.40
2022-10-08T10:25:42.224Z,2.30
2022-10-08T10:29:02.869Z,1.98
2022-10-08T10:32:14.621Z,1.90
2022-10-08T10:35:27.556Z,2.10
2022-10-08T10:38:31.628Z,2.20
2022-10-08T11:21:56.404Z,2.20
2022-10-08T11:26:23.211Z,1.90
2022-10-08T11:45:55.385Z,1.75
2022-10-08T13:32:42.975Z,1.30
2022-10-08T14:02:25.674Z,1.20
2022-10-08T14:10:32.553Z,1.10
2022-10-08T14:14:12.264Z,0.90
2022-10-08T14:21:35.105Z,0.90
2022-10-08T14:25:10.836Z,0.98
2022-10-08T14:31:47.193Z,0.80
2022-10-08T14:34:50.295Z,0.80
2022-10-08T18:38:37.891Z,1.10
